sensor_id;sensor_type;location;lat;lon;timestamp;temperature;humidity
16321;DHT22;8269;50.990;4.494;2023-10-19T00:01:22;15.70;99.90
16321;DHT22;8269;50.990;4.494;2023-10-19T00:03:52;15.70;99.90
16321;DHT22;8269;50.990;4.494;2023-10-19T00:06:21;15.80;99.90
16321;DHT22;8269;50.990;4.494;2023-10-19T00:08:48;15.80;99.90
16321;DHT22;8269;50.990;4.494;2023-10-19T00:11:16;15.70;99.90
16321;DHT22;8269;50.990;4.494;2023-10-19T00:13:49;15.70;99.90
16321;DHT22;8269;50.990;4.494;2023-10-19T00:16:23;15.70;99.90
16321;DHT22;8269;50.990;4.494;2023-10-19T00:18:52;15.70;99.90
16321;DHT22;8269;50.990;4.494;2023-10-19T00:21:18;15.70;99.90
16321;DHT22;8269;50.990;4.494;2023-10-19T00:23:52;15.70;99.90
16321;DHT22;8269;50.990;4.494;2023-10-19T00:26:22;15.70;99.90
16321;DHT22;8269;50.990;4.494;2023-10-19T00:28:51;15.80;99.90
16321;DHT22;8269;50.990;4.494;2023-10-19T00:31:27;15.80;99.90
16321;DHT22;8269;50.990;4.494;2023-10-19T00:33:53;15.80;99.90
16321;DHT22;8269;50.990;4.494;2023-10-19T00:36:23;15.90;99.90
16321;DHT22;8269;50.990;4.494;2023-10-19T00:38:49;15.80;99.90
16321;DHT22;8269;50.990;4.494;2023-10-19T00:41:17;15.80;99.90
16321;DHT22;8269;50.990;4.494;2023-10-19T00:43:55;15.80;99.90
16321;DHT22;8269;50.990;4.494;2023-10-19T00:46:39;15.70;99.90
16321;DHT22;8269;50.990;4.494;2023-10-19T00:49:10;15.70;99.90
16321;DHT22;8269;50.990;4.494;2023-10-19T00:51:47;15.70;99.90
16321;DHT22;8269;50.990;4.494;2023-10-19T00:57:00;15.70;99.90
16321;DHT22;8269;50.990;4.494;2023-10-19T00:59:49;15.70;99.90
16321;DHT22;8269;50.990;4.494;2023-10-19T01:02:18;15.70;99.90
16321;DHT22;8269;50.990;4.494;2023-10-19T01:04:45;15.70;99.90
16321;DHT22;8269;50.990;4.494;2023-10-19T01:07:12;15.80;99.90
16321;DHT22;8269;50.990;4.494;2023-10-19T01:09:46;15.70;99.90
16321;DHT22;8269;50.990;4.494;2023-10-19T01:12:12;15.70;99.90
16321;DHT22;8269;50.990;4.494;2023-10-19T01:17:37;15.70;99.90
16321;DHT22;8269;50.990;4.494;2023-10-19T01:20:10;15.70;99.90
16321;DHT22;8269;50.990;4.494;2023-10-19T01:25:50;15.70;99.90
16321;DHT22;8269;50.990;4.494;2023-10-19T01:31:13;15.60;99.90
16321;DHT22;8269;50.990;4.494;2023-10-19T01:33:48;15.60;99.90
16321;DHT22;8269;50.990;4.494;2023-10-19T01:36:14;15.60;99.90
16321;DHT22;8269;50.990;4.494;2023-10-19T01:38:40;15.60;99.90
16321;DHT22;8269;50.990;4.494;2023-10-19T01:41:08;15.60;99.90
16321;DHT22;8269;50.990;4.494;2023-10-19T01:43:44;15.60;99.90
16321;DHT22;8269;50.990;4.494;2023-10-19T01:46:11;15.60;99.90
16321;DHT22;8269;50.990;4.494;2023-10-19T01:48:42;15.50;99.90
16321;DHT22;8269;50.990;4.494;2023-10-19T01:51:10;15.50;99.90
16321;DHT22;8269;50.990;4.494;2023-10-19T01:53:37;15.50;99.90
16321;DHT22;8269;50.990;4.494;2023-10-19T01:56:14;15.50;99.90
16321;DHT22;8269;50.990;4.494;2023-10-19T01:58:42;15.60;99.90
16321;DHT22;8269;50.990;4.494;2023-10-19T02:01:08;15.60;99.90
16321;DHT22;8269;50.990;4.494;2023-10-19T02:03:38;15.60;99.90
16321;DHT22;8269;50.990;4.494;2023-10-19T02:06:07;15.60;99.90
16321;DHT22;8269;50.990;4.494;2023-10-19T02:08:57;15.50;99.90
16321;DHT22;8269;50.990;4.494;2023-10-19T02:11:25;15.50;99.90
16321;DHT22;8269;50.990;4.494;2023-10-19T02:13:55;15.50;99.90
16321;DHT22;8269;50.990;4.494;2023-10-19T02:16:25;15.50;99.90
16321;DHT22;8269;50.990;4.494;2023-10-19T02:18:52;15.50;99.90
16321;DHT22;8269;50.990;4.494;2023-10-19T02:21:19;15.50;99.90
16321;DHT22;8269;50.990;4.494;2023-10-19T02:23:48;15.50;99.90
16321;DHT22;8269;50.990;4.494;2023-10-19T02:26:20;15.50;99.90
16321;DHT22;8269;50.990;4.494;2023-10-19T02:28:49;15.50;99.90
16321;DHT22;8269;50.990;4.494;2023-10-19T02:31:18;15.40;99.90
16321;DHT22;8269;50.990;4.494;2023-10-19T02:33:50;15.40;99.90
16321;DHT22;8269;50.990;4.494;2023-10-19T02:36:29;15.40;99.90
16321;DHT22;8269;50.990;4.494;2023-10-19T02:38:56;15.30;99.90
16321;DHT22;8269;50.990;4.494;2023-10-19T02:41:26;15.30;99.90
16321;DHT22;8269;50.990;4.494;2023-10-19T02:43:53;15.30;99.90
16321;DHT22;8269;50.990;4.494;2023-10-19T02:46:33;15.20;99.90
16321;DHT22;8269;50.990;4.494;2023-10-19T02:49:05;15.20;99.90
16321;DHT22;8269;50.990;4.494;2023-10-19T02:51:38;15.20;99.90
16321;DHT22;8269;50.990;4.494;2023-10-19T02:54:04;15.20;99.90
16321;DHT22;8269;50.990;4.494;2023-10-19T02:56:31;15.10;99.90
16321;DHT22;8269;50.990;4.494;2023-10-19T02:58:57;15.10;99.90
16321;DHT22;8269;50.990;4.494;2023-10-19T03:01:30;15.10;99.90
16321;DHT22;8269;50.990;4.494;2023-10-19T03:04:00;15.10;99.90
16321;DHT22;8269;50.990;4.494;2023-10-19T03:06:28;15.10;99.90
16321;DHT22;8269;50.990;4.494;2023-10-19T03:08:59;15.10;99.90
16321;DHT22;8269;50.990;4.494;2023-10-19T03:11:30;15.00;99.90
16321;DHT22;8269;50.990;4.494;2023-10-19T03:14:00;15.00;99.90
16321;DHT22;8269;50.990;4.494;2023-10-19T03:16:30;14.90;99.90
16321;DHT22;8269;50.990;4.494;2023-10-19T03:18:56;14.80;99.90
16321;DHT22;8269;50.990;4.494;2023-10-19T03:21:22;14.80;99.90
16321;DHT22;8269;50.990;4.494;2023-10-19T03:23:54;14.80;99.90
16321;DHT22;8269;50.990;4.494;2023-10-19T03:26:22;14.80;99.90
16321;DHT22;8269;50.990;4.494;2023-10-19T03:28:51;14.80;99.90
16321;DHT22;8269;50.990;4.494;2023-10-19T03:31:28;14.80;99.90
16321;DHT22;8269;50.990;4.494;2023-10-19T03:33:54;14.90;99.90
16321;DHT22;8269;50.990;4.494;2023-10-19T03:36:21;14.90;99.90
16321;DHT22;8269;50.990;4.494;2023-10-19T03:38:48;14.90;99.90
16321;DHT22;8269;50.990;4.494;2023-10-19T03:41:15;14.90;99.90
16321;DHT22;8269;50.990;4.494;2023-10-19T03:43:41;15.00;99.90
16321;DHT22;8269;50.990;4.494;2023-10-19T03:46:07;15.00;99.90
16321;DHT22;8269;50.990;4.494;2023-10-19T03:48:55;15.00;99.90
16321;DHT22;8269;50.990;4.494;2023-10-19T03:51:27;15.00;99.90
16321;DHT22;8269;50.990;4.494;2023-10-19T03:54:05;15.00;99.90
16321;DHT22;8269;50.990;4.494;2023-10-19T03:56:38;15.00;99.90
16321;DHT22;8269;50.990;4.494;2023-10-19T03:59:04;15.00;99.90
16321;DHT22;8269;50.990;4.494;2023-10-19T04:01:31;15.00;99.90
16321;DHT22;8269;50.990;4.494;2023-10-19T04:03:57;15.00;99.90
16321;DHT22;8269;50.990;4.494;2023-10-19T04:06:23;15.00;99.90
16321;DHT22;8269;50.990;4.494;2023-10-19T04:08:48;15.00;99.90
16321;DHT22;8269;50.990;4.494;2023-10-19T04:11:17;15.00;99.90
16321;DHT22;8269;50.990;4.494;2023-10-19T04:13:48;15.00;99.90
16321;DHT22;8269;50.990;4.494;2023-10-19T04:16:18;15.00;99.90
16321;DHT22;8269;50.990;4.494;2023-10-19T04:18:44;15.00;99.90
16321;DHT22;8269;50.990;4.494;2023-10-19T04:21:10;15.00;99.90
16321;DHT22;8269;50.990;4.494;2023-10-19T04:23:36;15.00;99.90
16321;DHT22;8269;50.990;4.494;2023-10-19T04:26:03;15.00;99.90
16321;DHT22;8269;50.990;4.494;2023-10-19T04:28:37;15.00;99.90
16321;DHT22;8269;50.990;4.494;2023-10-19T04:31:16;15.00;99.90
16321;DHT22;8269;50.990;4.494;2023-10-19T04:33:43;15.00;99.90
16321;DHT22;8269;50.990;4.494;2023-10-19T04:36:15;15.00;99.90
16321;DHT22;8269;50.990;4.494;2023-10-19T04:38:41;15.00;99.90
16321;DHT22;8269;50.990;4.494;2023-10-19T04:41:10;15.00;99.90
16321;DHT22;8269;50.990;4.494;2023-10-19T04:43:37;15.00;99.90
16321;DHT22;8269;50.990;4.494;2023-10-19T04:46:08;15.00;99.90
16321;DHT22;8269;50.990;4.494;2023-10-19T04:48:37;15.00;99.90
16321;DHT22;8269;50.990;4.494;2023-10-19T04:51:05;15.00;99.90
16321;DHT22;8269;50.990;4.494;2023-10-19T04:53:32;15.00;99.90
16321;DHT22;8269;50.990;4.494;2023-10-19T04:55:58;15.00;99.90
16321;DHT22;8269;50.990;4.494;2023-10-19T04:58:29;15.00;99.90
16321;DHT22;8269;50.990;4.494;2023-10-19T05:00:55;15.00;99.90
16321;DHT22;8269;50.990;4.494;2023-10-19T05:03:21;15.00;99.90
16321;DHT22;8269;50.990;4.494;2023-10-19T05:05:46;15.00;99.90
16321;DHT22;8269;50.990;4.494;2023-10-19T05:08:12;15.00;99.90
16321;DHT22;8269;50.990;4.494;2023-10-19T05:10:38;15.00;99.90
16321;DHT22;8269;50.990;4.494;2023-10-19T05:13:04;15.00;99.90
16321;DHT22;8269;50.990;4.494;2023-10-19T05:15:30;15.00;99.90
16321;DHT22;8269;50.990;4.494;2023-10-19T05:17:55;15.00;99.90
16321;DHT22;8269;50.990;4.494;2023-10-19T05:20:21;15.00;99.90
16321;DHT22;8269;50.990;4.494;2023-10-19T05:22:49;15.00;99.90
16321;DHT22;8269;50.990;4.494;2023-10-19T05:25:14;15.00;99.90
16321;DHT22;8269;50.990;4.494;2023-10-19T05:27:40;15.00;99.90
16321;DHT22;8269;50.990;4.494;2023-10-19T05:30:08;15.00;99.90
16321;DHT22;8269;50.990;4.494;2023-10-19T05:32:37;15.00;99.90
16321;DHT22;8269;50.990;4.494;2023-10-19T05:35:03;15.00;99.90
16321;DHT22;8269;50.990;4.494;2023-10-19T05:37:30;15.00;99.90
16321;DHT22;8269;50.990;4.494;2023-10-19T05:39:59;15.00;99.90
16321;DHT22;8269;50.990;4.494;2023-10-19T05:42:24;15.00;99.90
16321;DHT22;8269;50.990;4.494;2023-10-19T05:44:51;15.00;99.90
16321;DHT22;8269;50.990;4.494;2023-10-19T05:47:17;15.00;99.90
16321;DHT22;8269;50.990;4.494;2023-10-19T05:49:43;15.00;99.90
16321;DHT22;8269;50.990;4.494;2023-10-19T05:52:09;15.00;99.90
16321;DHT22;8269;50.990;4.494;2023-10-19T05:54:36;15.00;99.90
16321;DHT22;8269;50.990;4.494;2023-10-19T05:57:03;15.00;99.90
16321;DHT22;8269;50.990;4.494;2023-10-19T05:59:34;15.00;99.90
16321;DHT22;8269;50.990;4.494;2023-10-19T06:02:01;15.00;99.90
16321;DHT22;8269;50.990;4.494;2023-10-19T06:04:27;15.00;99.90
16321;DHT22;8269;50.990;4.494;2023-10-19T06:06:54;15.10;99.90
16321;DHT22;8269;50.990;4.494;2023-10-19T06:09:20;15.10;99.90
16321;DHT22;8269;50.990;4.494;2023-10-19T06:11:46;15.10;99.90
16321;DHT22;8269;50.990;4.494;2023-10-19T06:14:12;15.00;99.90
16321;DHT22;8269;50.990;4.494;2023-10-19T06:16:37;15.00;99.90
16321;DHT22;8269;50.990;4.494;2023-10-19T06:19:03;15.00;99.90
16321;DHT22;8269;50.990;4.494;2023-10-19T06:21:29;15.00;99.90
16321;DHT22;8269;50.990;4.494;2023-10-19T06:23:56;15.00;99.90
16321;DHT22;8269;50.990;4.494;2023-10-19T06:26:23;15.00;99.90
16321;DHT22;8269;50.990;4.494;2023-10-19T06:28:48;15.00;99.90
16321;DHT22;8269;50.990;4.494;2023-10-19T06:31:16;15.00;99.90
16321;DHT22;8269;50.990;4.494;2023-10-19T06:33:42;15.00;99.90
16321;DHT22;8269;50.990;4.494;2023-10-19T06:36:08;14.90;99.90
16321;DHT22;8269;50.990;4.494;2023-10-19T06:38:34;14.90;99.90
16321;DHT22;8269;50.990;4.494;2023-10-19T06:41:00;14.90;99.90
16321;DHT22;8269;50.990;4.494;2023-10-19T06:43:28;14.90;99.90
16321;DHT22;8269;50.990;4.494;2023-10-19T06:45:56;14.90;99.90
16321;DHT22;8269;50.990;4.494;2023-10-19T06:48:21;14.90;99.90
16321;DHT22;8269;50.990;4.494;2023-10-19T06:50:47;14.90;99.90
16321;DHT22;8269;50.990;4.494;2023-10-19T06:53:13;14.90;99.90
16321;DHT22;8269;50.990;4.494;2023-10-19T06:55:39;14.90;99.90
16321;DHT22;8269;50.990;4.494;2023-10-19T06:58:05;14.90;99.90
16321;DHT22;8269;50.990;4.494;2023-10-19T07:00:32;14.80;99.90
16321;DHT22;8269;50.990;4.494;2023-10-19T07:02:59;14.80;99.90
16321;DHT22;8269;50.990;4.494;2023-10-19T07:05:27;14.80;99.90
16321;DHT22;8269;50.990;4.494;2023-10-19T07:07:56;14.80;99.90
16321;DHT22;8269;50.990;4.494;2023-10-19T07:10:25;14.80;99.90
16321;DHT22;8269;50.990;4.494;2023-10-19T07:12:54;14.80;99.90
16321;DHT22;8269;50.990;4.494;2023-10-19T07:15:20;14.90;99.90
16321;DHT22;8269;50.990;4.494;2023-10-19T07:17:48;14.90;99.90
16321;DHT22;8269;50.990;4.494;2023-10-19T07:20:15;15.00;99.90
16321;DHT22;8269;50.990;4.494;2023-10-19T07:22:54;15.00;99.90
16321;DHT22;8269;50.990;4.494;2023-10-19T07:25:21;15.10;99.90
16321;DHT22;8269;50.990;4.494;2023-10-19T07:27:50;15.30;99.90
16321;DHT22;8269;50.990;4.494;2023-10-19T07:30:17;15.40;99.90
16321;DHT22;8269;50.990;4.494;2023-10-19T07:32:49;15.50;99.90
16321;DHT22;8269;50.990;4.494;2023-10-19T07:35:18;15.60;99.90
16321;DHT22;8269;50.990;4.494;2023-10-19T07:37:45;15.90;99.90
16321;DHT22;8269;50.990;4.494;2023-10-19T07:40:13;16.10;99.90
16321;DHT22;8269;50.990;4.494;2023-10-19T07:42:40;16.00;99.90
16321;DHT22;8269;50.990;4.494;2023-10-19T07:45:06;15.90;99.90
16321;DHT22;8269;50.990;4.494;2023-10-19T07:47:38;15.90;99.90
16321;DHT22;8269;50.990;4.494;2023-10-19T07:50:07;15.80;99.90
16321;DHT22;8269;50.990;4.494;2023-10-19T07:52:39;15.70;99.90
16321;DHT22;8269;50.990;4.494;2023-10-19T07:55:08;15.70;99.90
16321;DHT22;8269;50.990;4.494;2023-10-19T07:57:33;15.70;99.90
16321;DHT22;8269;50.990;4.494;2023-10-19T08:00:00;15.70;99.90
16321;DHT22;8269;50.990;4.494;2023-10-19T08:02:25;15.80;99.90
16321;DHT22;8269;50.990;4.494;2023-10-19T08:04:52;15.80;99.90
16321;DHT22;8269;50.990;4.494;2023-10-19T08:07:18;15.80;99.90
16321;DHT22;8269;50.990;4.494;2023-10-19T08:09:44;15.80;99.90
16321;DHT22;8269;50.990;4.494;2023-10-19T08:12:10;15.80;99.90
16321;DHT22;8269;50.990;4.494;2023-10-19T08:14:39;15.90;99.90
16321;DHT22;8269;50.990;4.494;2023-10-19T08:17:05;15.80;99.90
16321;DHT22;8269;50.990;4.494;2023-10-19T08:19:30;15.80;99.90
16321;DHT22;8269;50.990;4.494;2023-10-19T08:21:59;15.90;99.90
16321;DHT22;8269;50.990;4.494;2023-10-19T08:24:24;15.90;99.90
16321;DHT22;8269;50.990;4.494;2023-10-19T08:26:52;16.00;99.90
16321;DHT22;8269;50.990;4.494;2023-10-19T08:29:18;16.10;99.90
16321;DHT22;8269;50.990;4.494;2023-10-19T08:31:44;16.30;99.90
16321;DHT22;8269;50.990;4.494;2023-10-19T08:34:14;16.60;99.90
16321;DHT22;8269;50.990;4.494;2023-10-19T08:36:41;16.70;99.90
16321;DHT22;8269;50.990;4.494;2023-10-19T08:39:09;16.80;99.90
16321;DHT22;8269;50.990;4.494;2023-10-19T08:41:39;16.80;99.90
16321;DHT22;8269;50.990;4.494;2023-10-19T08:44:07;16.80;99.90
16321;DHT22;8269;50.990;4.494;2023-10-19T08:46:40;16.80;99.90
16321;DHT22;8269;50.990;4.494;2023-10-19T08:49:12;16.90;99.90
16321;DHT22;8269;50.990;4.494;2023-10-19T08:51:39;17.00;99.90
16321;DHT22;8269;50.990;4.494;2023-10-19T08:54:05;17.00;99.90
16321;DHT22;8269;50.990;4.494;2023-10-19T08:56:32;17.00;99.90
16321;DHT22;8269;50.990;4.494;2023-10-19T08:59:00;16.90;99.90
16321;DHT22;8269;50.990;4.494;2023-10-19T09:01:27;16.80;99.90
16321;DHT22;8269;50.990;4.494;2023-10-19T09:03:57;16.70;99.90
16321;DHT22;8269;50.990;4.494;2023-10-19T09:06:22;16.70;99.90
16321;DHT22;8269;50.990;4.494;2023-10-19T09:08:51;16.60;99.90
16321;DHT22;8269;50.990;4.494;2023-10-19T09:11:20;16.60;99.90
16321;DHT22;8269;50.990;4.494;2023-10-19T09:13:49;16.60;99.90
16321;DHT22;8269;50.990;4.494;2023-10-19T09:16:24;16.60;99.90
16321;DHT22;8269;50.990;4.494;2023-10-19T09:19:02;16.60;99.90
16321;DHT22;8269;50.990;4.494;2023-10-19T09:21:28;16.70;99.90
16321;DHT22;8269;50.990;4.494;2023-10-19T09:23:57;16.70;99.90
16321;DHT22;8269;50.990;4.494;2023-10-19T09:26:23;16.80;99.90
16321;DHT22;8269;50.990;4.494;2023-10-19T09:28:51;16.80;99.90
16321;DHT22;8269;50.990;4.494;2023-10-19T09:31:21;16.80;99.90
16321;DHT22;8269;50.990;4.494;2023-10-19T09:33:50;16.80;99.90
16321;DHT22;8269;50.990;4.494;2023-10-19T09:36:16;16.80;99.90
16321;DHT22;8269;50.990;4.494;2023-10-19T09:38:51;16.80;99.90
16321;DHT22;8269;50.990;4.494;2023-10-19T09:41:22;16.80;99.90
16321;DHT22;8269;50.990;4.494;2023-10-19T09:43:49;16.80;99.90
16321;DHT22;8269;50.990;4.494;2023-10-19T09:49:53;16.90;99.90
16321;DHT22;8269;50.990;4.494;2023-10-19T09:52:23;16.90;99.90
16321;DHT22;8269;50.990;4.494;2023-10-19T09:58:06;17.00;99.90
16321;DHT22;8269;50.990;4.494;2023-10-19T10:00:33;17.10;99.90
16321;DHT22;8269;50.990;4.494;2023-10-19T10:03:00;17.10;99.90
16321;DHT22;8269;50.990;4.494;2023-10-19T10:05:46;17.20;99.90
16321;DHT22;8269;50.990;4.494;2023-10-19T10:10:49;17.10;99.90
16321;DHT22;8269;50.990;4.494;2023-10-19T10:15:58;17.00;99.90
16321;DHT22;8269;50.990;4.494;2023-10-19T10:18:28;17.00;99.90
16321;DHT22;8269;50.990;4.494;2023-10-19T10:21:05;17.00;99.90
16321;DHT22;8269;50.990;4.494;2023-10-19T10:26:09;17.00;99.90
16321;DHT22;8269;50.990;4.494;2023-10-19T10:28:35;17.00;99.90
16321;DHT22;8269;50.990;4.494;2023-10-19T10:31:11;17.00;99.90
16321;DHT22;8269;50.990;4.494;2023-10-19T10:36:11;17.10;99.90
16321;DHT22;8269;50.990;4.494;2023-10-19T10:38:38;17.20;99.90
16321;DHT22;8269;50.990;4.494;2023-10-19T10:41:07;17.20;99.90
16321;DHT22;8269;50.990;4.494;2023-10-19T10:44:11;17.30;99.90
16321;DHT22;8269;50.990;4.494;2023-10-19T10:46:43;17.30;99.90
16321;DHT22;8269;50.990;4.494;2023-10-19T10:49:09;17.50;99.90
16321;DHT22;8269;50.990;4.494;2023-10-19T10:51:35;17.50;99.90
16321;DHT22;8269;50.990;4.494;2023-10-19T10:54:00;17.60;99.90
16321;DHT22;8269;50.990;4.494;2023-10-19T10:56:26;17.70;99.90
16321;DHT22;8269;50.990;4.494;2023-10-19T10:58:53;17.70;99.90
16321;DHT22;8269;50.990;4.494;2023-10-19T11:01:31;17.80;99.90
16321;DHT22;8269;50.990;4.494;2023-10-19T11:04:10;17.90;99.90
16321;DHT22;8269;50.990;4.494;2023-10-19T11:06:49;17.80;99.90
16321;DHT22;8269;50.990;4.494;2023-10-19T11:09:15;17.80;99.90
16321;DHT22;8269;50.990;4.494;2023-10-19T11:11:48;17.60;99.90
16321;DHT22;8269;50.990;4.494;2023-10-19T11:14:19;17.60;99.90
16321;DHT22;8269;50.990;4.494;2023-10-19T11:17:17;17.50;99.90
16321;DHT22;8269;50.990;4.494;2023-10-19T11:19:42;17.40;99.90
16321;DHT22;8269;50.990;4.494;2023-10-19T11:22:11;17.30;99.90
16321;DHT22;8269;50.990;4.494;2023-10-19T11:24:37;17.30;99.90
16321;DHT22;8269;50.990;4.494;2023-10-19T11:27:06;17.30;99.90
16321;DHT22;8269;50.990;4.494;2023-10-19T11:29:33;17.20;99.90
16321;DHT22;8269;50.990;4.494;2023-10-19T11:31:59;17.10;99.90
16321;DHT22;8269;50.990;4.494;2023-10-19T11:34:25;17.30;99.90
16321;DHT22;8269;50.990;4.494;2023-10-19T11:36:56;16.80;99.90
16321;DHT22;8269;50.990;4.494;2023-10-19T11:39:25;16.70;99.90
16321;DHT22;8269;50.990;4.494;2023-10-19T11:41:51;16.70;99.90
16321;DHT22;8269;50.990;4.494;2023-10-19T11:44:19;16.70;99.90
16321;DHT22;8269;50.990;4.494;2023-10-19T11:46:45;16.70;99.90
16321;DHT22;8269;50.990;4.494;2023-10-19T11:49:11;16.70;99.90
16321;DHT22;8269;50.990;4.494;2023-10-19T11:52:05;16.80;99.90
16321;DHT22;8269;50.990;4.494;2023-10-19T11:54:34;16.80;99.90
16321;DHT22;8269;50.990;4.494;2023-10-19T11:57:12;16.80;99.90
16321;DHT22;8269;50.990;4.494;2023-10-19T11:59:38;16.70;99.90
16321;DHT22;8269;50.990;4.494;2023-10-19T12:04:46;16.80;99.90
16321;DHT22;8269;50.990;4.494;2023-10-19T12:07:11;16.80;99.90
16321;DHT22;8269;50.990;4.494;2023-10-19T12:09:37;16.90;99.90
16321;DHT22;8269;50.990;4.494;2023-10-19T12:12:09;16.90;99.90
16321;DHT22;8269;50.990;4.494;2023-10-19T12:14:36;16.90;99.90
16321;DHT22;8269;50.990;4.494;2023-10-19T12:17:02;17.00;99.90
16321;DHT22;8269;50.990;4.494;2023-10-19T12:19:31;17.00;99.90
16321;DHT22;8269;50.990;4.494;2023-10-19T12:22:16;17.00;99.90
16321;DHT22;8269;50.990;4.494;2023-10-19T12:24:42;17.00;99.90
16321;DHT22;8269;50.990;4.494;2023-10-19T12:27:09;17.00;99.90
16321;DHT22;8269;50.990;4.494;2023-10-19T12:29:38;17.00;99.90
16321;DHT22;8269;50.990;4.494;2023-10-19T12:32:07;16.90;99.90
16321;DHT22;8269;50.990;4.494;2023-10-19T12:34:35;17.00;99.90
16321;DHT22;8269;50.990;4.494;2023-10-19T12:37:01;16.90;99.90
16321;DHT22;8269;50.990;4.494;2023-10-19T12:39:29;16.90;99.90
16321;DHT22;8269;50.990;4.494;2023-10-19T12:42:15;16.90;99.90
16321;DHT22;8269;50.990;4.494;2023-10-19T12:44:41;16.90;99.90
16321;DHT22;8269;50.990;4.494;2023-10-19T12:47:10;16.90;99.90
16321;DHT22;8269;50.990;4.494;2023-10-19T12:49:40;16.90;99.90
16321;DHT22;8269;50.990;4.494;2023-10-19T12:52:07;16.90;99.90
16321;DHT22;8269;50.990;4.494;2023-10-19T12:54:52;16.90;99.90
16321;DHT22;8269;50.990;4.494;2023-10-19T12:57:24;17.00;99.90
16321;DHT22;8269;50.990;4.494;2023-10-19T12:59:52;17.20;99.90
16321;DHT22;8269;50.990;4.494;2023-10-19T13:02:18;17.40;99.90
16321;DHT22;8269;50.990;4.494;2023-10-19T13:04:46;17.60;99.90
16321;DHT22;8269;50.990;4.494;2023-10-19T13:07:11;17.70;99.90
16321;DHT22;8269;50.990;4.494;2023-10-19T13:09:38;17.80;99.90
16321;DHT22;8269;50.990;4.494;2023-10-19T13:12:03;18.00;99.90
16321;DHT22;8269;50.990;4.494;2023-10-19T13:14:33;18.00;99.90
16321;DHT22;8269;50.990;4.494;2023-10-19T13:16:59;18.10;99.90
16321;DHT22;8269;50.990;4.494;2023-10-19T13:19:25;18.10;99.90
16321;DHT22;8269;50.990;4.494;2023-10-19T13:21:52;18.10;99.90
16321;DHT22;8269;50.990;4.494;2023-10-19T13:24:19;18.20;99.90
16321;DHT22;8269;50.990;4.494;2023-10-19T13:26:50;18.30;99.90
16321;DHT22;8269;50.990;4.494;2023-10-19T13:29:16;18.20;99.90
16321;DHT22;8269;50.990;4.494;2023-10-19T13:31:42;18.20;99.90
16321;DHT22;8269;50.990;4.494;2023-10-19T13:34:15;18.20;99.90
16321;DHT22;8269;50.990;4.494;2023-10-19T13:36:41;18.20;99.90
16321;DHT22;8269;50.990;4.494;2023-10-19T13:39:07;18.30;99.90
16321;DHT22;8269;50.990;4.494;2023-10-19T13:41:38;18.10;99.90
16321;DHT22;8269;50.990;4.494;2023-10-19T13:44:05;18.10;99.90
16321;DHT22;8269;50.990;4.494;2023-10-19T13:46:31;18.10;99.90
16321;DHT22;8269;50.990;4.494;2023-10-19T13:48:56;18.10;99.90
16321;DHT22;8269;50.990;4.494;2023-10-19T13:51:22;18.20;99.90
16321;DHT22;8269;50.990;4.494;2023-10-19T13:53:48;18.20;99.90
16321;DHT22;8269;50.990;4.494;2023-10-19T13:56:16;18.20;99.90
16321;DHT22;8269;50.990;4.494;2023-10-19T13:58:42;18.30;99.90
16321;DHT22;8269;50.990;4.494;2023-10-19T14:01:09;18.20;99.90
16321;DHT22;8269;50.990;4.494;2023-10-19T14:03:39;18.20;99.90
16321;DHT22;8269;50.990;4.494;2023-10-19T14:06:10;18.20;99.90
16321;DHT22;8269;50.990;4.494;2023-10-19T14:08:43;18.10;99.90
16321;DHT22;8269;50.990;4.494;2023-10-19T14:11:09;18.10;99.90
16321;DHT22;8269;50.990;4.494;2023-10-19T14:13:35;18.20;99.90
16321;DHT22;8269;50.990;4.494;2023-10-19T14:16:05;18.20;99.90
16321;DHT22;8269;50.990;4.494;2023-10-19T14:18:31;18.40;99.90
16321;DHT22;8269;50.990;4.494;2023-10-19T14:20:57;18.40;99.90
16321;DHT22;8269;50.990;4.494;2023-10-19T14:23:22;18.40;99.90
16321;DHT22;8269;50.990;4.494;2023-10-19T14:28:16;18.40;99.90
16321;DHT22;8269;50.990;4.494;2023-10-19T14:33:07;18.30;99.90
16321;DHT22;8269;50.990;4.494;2023-10-19T14:35:36;18.70;99.90
16321;DHT22;8269;50.990;4.494;2023-10-19T14:38:07;18.60;99.90
16321;DHT22;8269;50.990;4.494;2023-10-19T14:40:34;18.40;99.90
16321;DHT22;8269;50.990;4.494;2023-10-19T14:43:01;18.40;99.90
16321;DHT22;8269;50.990;4.494;2023-10-19T14:45:27;18.20;99.90
16321;DHT22;8269;50.990;4.494;2023-10-19T14:47:59;18.70;99.90
16321;DHT22;8269;50.990;4.494;2023-10-19T14:50:25;18.80;99.90
16321;DHT22;8269;50.990;4.494;2023-10-19T14:52:53;18.60;99.90
16321;DHT22;8269;50.990;4.494;2023-10-19T14:55:25;18.40;99.90
16321;DHT22;8269;50.990;4.494;2023-10-19T14:57:56;18.30;99.90
16321;DHT22;8269;50.990;4.494;2023-10-19T15:00:26;18.70;99.90
16321;DHT22;8269;50.990;4.494;2023-10-19T15:03:00;18.50;99.90
16321;DHT22;8269;50.990;4.494;2023-10-19T15:05:28;18.40;99.90
16321;DHT22;8269;50.990;4.494;2023-10-19T15:07:54;18.50;99.90
16321;DHT22;8269;50.990;4.494;2023-10-19T15:10:25;18.60;99.90
16321;DHT22;8269;50.990;4.494;2023-10-19T15:12:51;18.30;99.90
16321;DHT22;8269;50.990;4.494;2023-10-19T15:15:17;18.40;99.90
16321;DHT22;8269;50.990;4.494;2023-10-19T15:17:44;18.30;99.90
16321;DHT22;8269;50.990;4.494;2023-10-19T15:20:11;18.20;99.90
16321;DHT22;8269;50.990;4.494;2023-10-19T15:22:38;17.80;99.90
16321;DHT22;8269;50.990;4.494;2023-10-19T15:25:07;18.10;99.90
16321;DHT22;8269;50.990;4.494;2023-10-19T15:27:35;18.00;99.90
16321;DHT22;8269;50.990;4.494;2023-10-19T15:30:06;18.00;99.90
16321;DHT22;8269;50.990;4.494;2023-10-19T15:32:33;18.00;99.90
16321;DHT22;8269;50.990;4.494;2023-10-19T15:35:02;17.90;99.90
16321;DHT22;8269;50.990;4.494;2023-10-19T15:37:29;18.00;99.90
16321;DHT22;8269;50.990;4.494;2023-10-19T15:39:57;18.00;99.90
16321;DHT22;8269;50.990;4.494;2023-10-19T15:42:23;17.90;99.90
16321;DHT22;8269;50.990;4.494;2023-10-19T15:44:51;18.20;99.90
16321;DHT22;8269;50.990;4.494;2023-10-19T15:47:20;18.00;99.90
16321;DHT22;8269;50.990;4.494;2023-10-19T15:50:08;18.20;99.90
16321;DHT22;8269;50.990;4.494;2023-10-19T15:52:34;17.90;99.90
16321;DHT22;8269;50.990;4.494;2023-10-19T15:55:04;17.90;99.90
16321;DHT22;8269;50.990;4.494;2023-10-19T15:57:32;17.90;99.90
16321;DHT22;8269;50.990;4.494;2023-10-19T16:00:02;17.80;99.90
16321;DHT22;8269;50.990;4.494;2023-10-19T16:02:28;17.90;99.90
16321;DHT22;8269;50.990;4.494;2023-10-19T16:04:58;17.80;99.90
16321;DHT22;8269;50.990;4.494;2023-10-19T16:07:24;18.00;99.90
16321;DHT22;8269;50.990;4.494;2023-10-19T16:09:50;17.60;99.90
16321;DHT22;8269;50.990;4.494;2023-10-19T16:12:17;17.40;99.90
16321;DHT22;8269;50.990;4.494;2023-10-19T16:14:43;17.70;99.90
16321;DHT22;8269;50.990;4.494;2023-10-19T16:17:09;17.80;99.90
16321;DHT22;8269;50.990;4.494;2023-10-19T16:19:35;17.70;99.90
16321;DHT22;8269;50.990;4.494;2023-10-19T16:22:03;17.80;99.90
16321;DHT22;8269;50.990;4.494;2023-10-19T16:24:29;17.60;99.90
16321;DHT22;8269;50.990;4.494;2023-10-19T16:26:56;17.30;99.90
16321;DHT22;8269;50.990;4.494;2023-10-19T16:29:22;17.00;99.90
16321;DHT22;8269;50.990;4.494;2023-10-19T16:31:48;17.10;99.90